sensor_id;sensor_type;location;lat;lon;timestamp;temperature;humidity
47604;DHT22;33326;51.116;6.900;2022-11-25T00:05:00;9.00;99.90
47604;DHT22;33326;51.116;6.900;2022-11-25T00:10:02;8.90;99.90
47604;DHT22;33326;51.116;6.900;2022-11-25T00:15:04;8.90;99.90
47604;DHT22;33326;51.116;6.900;2022-11-25T00:20:08;8.90;99.90
47604;DHT22;33326;51.116;6.900;2022-11-25T00:25:10;8.90;99.90
47604;DHT22;33326;51.116;6.900;2022-11-25T00:30:13;8.70;99.90
47604;DHT22;33326;51.116;6.900;2022-11-25T00:35:16;8.80;99.90
47604;DHT22;33326;51.116;6.900;2022-11-25T00:40:18;8.80;99.90
47604;DHT22;33326;51.116;6.900;2022-11-25T00:45:19;8.80;99.90
47604;DHT22;33326;51.116;6.900;2022-11-25T00:50:23;8.80;99.90
47604;DHT22;33326;51.116;6.900;2022-11-25T00:55:24;8.70;99.90
47604;DHT22;33326;51.116;6.900;2022-11-25T01:00:47;8.70;99.90
47604;DHT22;33326;51.116;6.900;2022-11-25T01:05:50;8.70;99.90
47604;DHT22;33326;51.116;6.900;2022-11-25T01:10:57;8.80;99.90
47604;DHT22;33326;51.116;6.900;2022-11-25T01:16:00;8.70;99.90
47604;DHT22;33326;51.116;6.900;2022-11-25T01:21:08;8.80;99.90
47604;DHT22;33326;51.116;6.900;2022-11-25T01:26:11;8.80;99.90
47604;DHT22;33326;51.116;6.900;2022-11-25T01:31:15;8.80;99.90
47604;DHT22;33326;51.116;6.900;2022-11-25T01:36:18;8.90;99.90
47604;DHT22;33326;51.116;6.900;2022-11-25T01:41:22;8.90;99.90
47604;DHT22;33326;51.116;6.900;2022-11-25T01:46:26;8.90;99.90
47604;DHT22;33326;51.116;6.900;2022-11-25T01:51:37;9.00;99.90
47604;DHT22;33326;51.116;6.900;2022-11-25T01:56:41;9.00;99.90
47604;DHT22;33326;51.116;6.900;2022-11-25T02:01:44;9.00;99.90
47604;DHT22;33326;51.116;6.900;2022-11-25T02:06:51;9.10;99.90
47604;DHT22;33326;51.116;6.900;2022-11-25T02:11:55;9.10;99.90
47604;DHT22;33326;51.116;6.900;2022-11-25T02:16:59;9.10;99.90
47604;DHT22;33326;51.116;6.900;2022-11-25T02:22:03;9.20;99.90
47604;DHT22;33326;51.116;6.900;2022-11-25T02:27:08;9.20;99.90
47604;DHT22;33326;51.116;6.900;2022-11-25T02:32:10;9.30;99.90
47604;DHT22;33326;51.116;6.900;2022-11-25T02:37:14;9.30;99.90
47604;DHT22;33326;51.116;6.900;2022-11-25T02:42:20;9.30;99.90
47604;DHT22;33326;51.116;6.900;2022-11-25T02:47:23;9.30;99.90
47604;DHT22;33326;51.116;6.900;2022-11-25T02:52:25;9.30;99.90
47604;DHT22;33326;51.116;6.900;2022-11-25T02:57:28;9.30;99.90
47604;DHT22;33326;51.116;6.900;2022-11-25T03:02:30;9.30;99.90
47604;DHT22;33326;51.116;6.900;2022-11-25T03:07:35;9.30;99.90
47604;DHT22;33326;51.116;6.900;2022-11-25T03:12:38;9.40;99.90
47604;DHT22;33326;51.116;6.900;2022-11-25T03:17:41;9.40;99.90
47604;DHT22;33326;51.116;6.900;2022-11-25T03:22:43;9.40;99.90
47604;DHT22;33326;51.116;6.900;2022-11-25T03:27:47;9.50;99.90
47604;DHT22;33326;51.116;6.900;2022-11-25T03:32:49;9.50;99.90
47604;DHT22;33326;51.116;6.900;2022-11-25T03:37:51;9.60;99.90
47604;DHT22;33326;51.116;6.900;2022-11-25T03:42:55;9.60;99.90
47604;DHT22;33326;51.116;6.900;2022-11-25T03:47:57;9.60;99.90
47604;DHT22;33326;51.116;6.900;2022-11-25T03:53:00;9.70;99.90
47604;DHT22;33326;51.116;6.900;2022-11-25T03:58:03;9.70;99.90
47604;DHT22;33326;51.116;6.900;2022-11-25T04:03:06;9.70;99.90
47604;DHT22;33326;51.116;6.900;2022-11-25T04:08:08;9.80;99.90
47604;DHT22;33326;51.116;6.900;2022-11-25T04:13:13;9.80;99.90
47604;DHT22;33326;51.116;6.900;2022-11-25T04:18:17;9.80;99.90
47604;DHT22;33326;51.116;6.900;2022-11-25T04:23:20;9.90;99.90
47604;DHT22;33326;51.116;6.900;2022-11-25T04:28:33;9.90;99.90
47604;DHT22;33326;51.116;6.900;2022-11-25T04:33:35;9.90;99.90
47604;DHT22;33326;51.116;6.900;2022-11-25T04:38:37;10.00;99.90
47604;DHT22;33326;51.116;6.900;2022-11-25T04:43:41;10.00;99.90
47604;DHT22;33326;51.116;6.900;2022-11-25T04:48:46;9.90;99.90
47604;DHT22;33326;51.116;6.900;2022-11-25T04:53:49;9.90;99.90
47604;DHT22;33326;51.116;6.900;2022-11-25T04:58:53;9.80;99.90
47604;DHT22;33326;51.116;6.900;2022-11-25T05:04:15;9.80;99.90
47604;DHT22;33326;51.116;6.900;2022-11-25T05:09:17;9.80;99.90
47604;DHT22;33326;51.116;6.900;2022-11-25T05:14:25;9.70;99.90
47604;DHT22;33326;51.116;6.900;2022-11-25T05:19:27;9.70;99.90
47604;DHT22;33326;51.116;6.900;2022-11-25T05:24:30;9.70;99.90
47604;DHT22;33326;51.116;6.900;2022-11-25T05:29:33;9.70;99.90
47604;DHT22;33326;51.116;6.900;2022-11-25T05:34:36;9.70;99.90
47604;DHT22;33326;51.116;6.900;2022-11-25T05:39:38;9.70;99.90
47604;DHT22;33326;51.116;6.900;2022-11-25T05:45:05;9.70;99.90
47604;DHT22;33326;51.116;6.900;2022-11-25T05:50:09;9.60;99.90
47604;DHT22;33326;51.116;6.900;2022-11-25T05:55:11;9.60;99.90
47604;DHT22;33326;51.116;6.900;2022-11-25T06:00:15;9.60;99.90
47604;DHT22;33326;51.116;6.900;2022-11-25T06:05:21;9.60;99.90
47604;DHT22;33326;51.116;6.900;2022-11-25T06:10:24;9.60;99.90
47604;DHT22;33326;51.116;6.900;2022-11-25T06:15:28;9.60;99.90
47604;DHT22;33326;51.116;6.900;2022-11-25T06:20:31;9.50;99.90
47604;DHT22;33326;51.116;6.900;2022-11-25T06:25:34;9.50;99.90
47604;DHT22;33326;51.116;6.900;2022-11-25T06:30:37;9.50;99.90
47604;DHT22;33326;51.116;6.900;2022-11-25T06:35:55;9.50;99.90
47604;DHT22;33326;51.116;6.900;2022-11-25T06:41:00;9.50;99.90
47604;DHT22;33326;51.116;6.900;2022-11-25T06:46:05;9.50;99.90
47604;DHT22;33326;51.116;6.900;2022-11-25T06:51:09;9.50;99.90
47604;DHT22;33326;51.116;6.900;2022-11-25T06:56:14;9.50;99.90
47604;DHT22;33326;51.116;6.900;2022-11-25T07:01:20;9.50;99.90
47604;DHT22;33326;51.116;6.900;2022-11-25T07:06:22;9.50;99.90
47604;DHT22;33326;51.116;6.900;2022-11-25T07:11:25;9.40;99.90
47604;DHT22;33326;51.116;6.900;2022-11-25T07:16:30;9.50;99.90
47604;DHT22;33326;51.116;6.900;2022-11-25T07:21:33;9.50;99.90
47604;DHT22;33326;51.116;6.900;2022-11-25T07:26:37;9.40;99.90
47604;DHT22;33326;51.116;6.900;2022-11-25T07:31:42;9.30;99.90
47604;DHT22;33326;51.116;6.900;2022-11-25T07:36:45;9.20;99.90
47604;DHT22;33326;51.116;6.900;2022-11-25T07:41:48;9.10;99.90
47604;DHT22;33326;51.116;6.900;2022-11-25T07:46:52;9.10;99.90
47604;DHT22;33326;51.116;6.900;2022-11-25T07:51:55;9.10;99.90
47604;DHT22;33326;51.116;6.900;2022-11-25T07:56:59;9.10;99.90
47604;DHT22;33326;51.116;6.900;2022-11-25T08:02:02;9.10;99.90
47604;DHT22;33326;51.116;6.900;2022-11-25T08:07:04;9.20;99.90
47604;DHT22;33326;51.116;6.900;2022-11-25T08:12:05;9.20;99.90
47604;DHT22;33326;51.116;6.900;2022-11-25T08:17:08;9.20;99.90
47604;DHT22;33326;51.116;6.900;2022-11-25T08:22:10;9.10;99.90
47604;DHT22;33326;51.116;6.900;2022-11-25T08:27:12;9.20;99.90
47604;DHT22;33326;51.116;6.900;2022-11-25T08:32:15;9.30;99.90
47604;DHT22;33326;51.116;6.900;2022-11-25T08:37:17;9.40;99.90
47604;DHT22;33326;51.116;6.900;2022-11-25T08:42:19;9.50;99.90
47604;DHT22;33326;51.116;6.900;2022-11-25T08:47:23;9.50;99.90
47604;DHT22;33326;51.116;6.900;2022-11-25T08:52:25;9.60;99.90
47604;DHT22;33326;51.116;6.900;2022-11-25T08:57:28;9.60;99.90
47604;DHT22;33326;51.116;6.900;2022-11-25T09:02:31;9.50;99.90
47604;DHT22;33326;51.116;6.900;2022-11-25T09:07:33;9.50;99.90
47604;DHT22;33326;51.116;6.900;2022-11-25T09:12:35;9.60;99.90
47604;DHT22;33326;51.116;6.900;2022-11-25T09:17:38;9.70;99.90
47604;DHT22;33326;51.116;6.900;2022-11-25T09:22:40;9.80;99.90
47604;DHT22;33326;51.116;6.900;2022-11-25T09:27:42;9.90;99.90
47604;DHT22;33326;51.116;6.900;2022-11-25T09:32:47;10.10;99.90
47604;DHT22;33326;51.116;6.900;2022-11-25T09:37:49;10.30;99.90
47604;DHT22;33326;51.116;6.900;2022-11-25T09:42:56;10.40;99.90
47604;DHT22;33326;51.116;6.900;2022-11-25T09:48:31;10.50;99.90
47604;DHT22;33326;51.116;6.900;2022-11-25T09:53:41;10.60;99.90
47604;DHT22;33326;51.116;6.900;2022-11-25T09:58:47;10.70;99.90
47604;DHT22;33326;51.116;6.900;2022-11-25T10:03:55;10.70;99.90
47604;DHT22;33326;51.116;6.900;2022-11-25T10:09:01;10.70;99.90
47604;DHT22;33326;51.116;6.900;2022-11-25T10:14:09;10.90;99.90
47604;DHT22;33326;51.116;6.900;2022-11-25T10:19:28;11.10;99.90
47604;DHT22;33326;51.116;6.900;2022-11-25T10:24:34;11.30;99.90
47604;DHT22;33326;51.116;6.900;2022-11-25T10:29:37;11.30;99.90
47604;DHT22;33326;51.116;6.900;2022-11-25T10:34:44;11.40;99.90
47604;DHT22;33326;51.116;6.900;2022-11-25T10:39:47;11.50;99.90
47604;DHT22;33326;51.116;6.900;2022-11-25T10:44:49;11.40;99.90
47604;DHT22;33326;51.116;6.900;2022-11-25T10:50:03;11.30;99.90
47604;DHT22;33326;51.116;6.900;2022-11-25T10:55:10;11.30;99.90
47604;DHT22;33326;51.116;6.900;2022-11-25T11:00:30;11.40;99.90
47604;DHT22;33326;51.116;6.900;2022-11-25T11:05:44;11.50;99.90
47604;DHT22;33326;51.116;6.900;2022-11-25T11:10:47;11.50;99.90
47604;DHT22;33326;51.116;6.900;2022-11-25T11:15:54;11.50;99.90
47604;DHT22;33326;51.116;6.900;2022-11-25T11:20:58;11.70;99.90
47604;DHT22;33326;51.116;6.900;2022-11-25T11:26:02;11.90;99.90
47604;DHT22;33326;51.116;6.900;2022-11-25T11:31:07;11.90;99.90
47604;DHT22;33326;51.116;6.900;2022-11-25T11:36:39;11.90;99.90
47604;DHT22;33326;51.116;6.900;2022-11-25T11:41:47;12.00;99.90
47604;DHT22;33326;51.116;6.900;2022-11-25T11:47:02;12.10;99.90
47604;DHT22;33326;51.116;6.900;2022-11-25T11:52:15;12.20;99.90
47604;DHT22;33326;51.116;6.900;2022-11-25T11:57:31;12.20;99.90
47604;DHT22;33326;51.116;6.900;2022-11-25T12:02:41;12.20;99.90
47604;DHT22;33326;51.116;6.900;2022-11-25T12:07:53;12.20;99.90
47604;DHT22;33326;51.116;6.900;2022-11-25T12:13:04;12.20;99.90
47604;DHT22;33326;51.116;6.900;2022-11-25T12:18:14;12.30;99.90
47604;DHT22;33326;51.116;6.900;2022-11-25T12:23:24;12.40;99.90
47604;DHT22;33326;51.116;6.900;2022-11-25T12:28:30;12.50;99.90
47604;DHT22;33326;51.116;6.900;2022-11-25T12:33:45;12.60;99.90
47604;DHT22;33326;51.116;6.900;2022-11-25T12:38:54;12.60;99.90
47604;DHT22;33326;51.116;6.900;2022-11-25T12:44:01;12.50;99.90
47604;DHT22;33326;51.116;6.900;2022-11-25T12:49:05;12.60;99.90
47604;DHT22;33326;51.116;6.900;2022-11-25T12:59:53;12.60;99.90
47604;DHT22;33326;51.116;6.900;2022-11-25T13:05:17;12.60;99.90
47604;DHT22;33326;51.116;6.900;2022-11-25T13:10:42;12.50;99.90
47604;DHT22;33326;51.116;6.900;2022-11-25T13:15:50;12.60;99.90
47604;DHT22;33326;51.116;6.900;2022-11-25T13:20:54;12.50;99.90
47604;DHT22;33326;51.116;6.900;2022-11-25T13:31:55;12.70;99.90
47604;DHT22;33326;51.116;6.900;2022-11-25T13:36:58;12.80;99.90
47604;DHT22;33326;51.116;6.900;2022-11-25T13:42:02;12.80;99.90
47604;DHT22;33326;51.116;6.900;2022-11-25T13:47:29;12.90;99.90
47604;DHT22;33326;51.116;6.900;2022-11-25T13:52:36;12.90;99.90
47604;DHT22;33326;51.116;6.900;2022-11-25T13:57:39;12.80;99.90
47604;DHT22;33326;51.116;6.900;2022-11-25T14:02:44;12.80;99.90
47604;DHT22;33326;51.116;6.900;2022-11-25T14:07:56;12.80;99.90
47604;DHT22;33326;51.116;6.900;2022-11-25T14:13:37;12.70;99.90
47604;DHT22;33326;51.116;6.900;2022-11-25T14:18:55;12.70;99.90
47604;DHT22;33326;51.116;6.900;2022-11-25T14:24:10;12.80;99.90
47604;DHT22;33326;51.116;6.900;2022-11-25T14:29:19;12.80;99.90
47604;DHT22;33326;51.116;6.900;2022-11-25T14:34:27;12.70;99.90
47604;DHT22;33326;51.116;6.900;2022-11-25T14:39:35;12.40;99.90
47604;DHT22;33326;51.116;6.900;2022-11-25T14:44:44;12.30;99.90
47604;DHT22;33326;51.116;6.900;2022-11-25T14:49:49;12.00;99.90
47604;DHT22;33326;51.116;6.900;2022-11-25T14:54:53;12.00;99.90
47604;DHT22;33326;51.116;6.900;2022-11-25T15:00:01;11.90;99.90
47604;DHT22;33326;51.116;6.900;2022-11-25T15:05:17;11.90;99.90
47604;DHT22;33326;51.116;6.900;2022-11-25T15:10:40;11.80;99.90
47604;DHT22;33326;51.116;6.900;2022-11-25T15:15:45;11.80;99.90
47604;DHT22;33326;51.116;6.900;2022-11-25T15:20:52;11.80;99.90
47604;DHT22;33326;51.116;6.900;2022-11-25T15:25:55;11.70;99.90
47604;DHT22;33326;51.116;6.900;2022-11-25T15:30:59;11.70;99.90
47604;DHT22;33326;51.116;6.900;2022-11-25T15:36:03;11.60;99.90
47604;DHT22;33326;51.116;6.900;2022-11-25T15:41:16;11.40;99.90
47604;DHT22;33326;51.116;6.900;2022-11-25T15:46:19;11.30;99.90
47604;DHT22;33326;51.116;6.900;2022-11-25T15:51:33;11.20;99.90
47604;DHT22;33326;51.116;6.900;2022-11-25T15:56:38;11.10;99.90
47604;DHT22;33326;51.116;6.900;2022-11-25T16:01:40;11.10;99.90
47604;DHT22;33326;51.116;6.900;2022-11-25T16:06:53;11.10;99.90
47604;DHT22;33326;51.116;6.900;2022-11-25T16:12:04;11.10;99.90
47604;DHT22;33326;51.116;6.900;2022-11-25T16:17:08;11.10;99.90
47604;DHT22;33326;51.116;6.900;2022-11-25T16:22:14;11.00;99.90
47604;DHT22;33326;51.116;6.900;2022-11-25T16:27:20;11.00;99.90
47604;DHT22;33326;51.116;6.900;2022-11-25T16:32:24;11.10;99.90
47604;DHT22;33326;51.116;6.900;2022-11-25T16:37:28;11.10;99.90
47604;DHT22;33326;51.116;6.900;2022-11-25T16:42:29;11.20;99.90
47604;DHT22;33326;51.116;6.900;2022-11-25T16:47:31;11.10;99.90
47604;DHT22;33326;51.116;6.900;2022-11-25T16:52:34;11.10;99.90
47604;DHT22;33326;51.116;6.900;2022-11-25T16:57:37;11.10;99.90
47604;DHT22;33326;51.116;6.900;2022-11-25T17:02:39;11.00;99.90
47604;DHT22;33326;51.116;6.900;2022-11-25T17:07:43;11.00;99.90
47604;DHT22;33326;51.116;6.900;2022-11-25T17:12:46;11.00;99.90
47604;DHT22;33326;51.116;6.900;2022-11-25T17:17:48;11.00;99.90
47604;DHT22;33326;51.116;6.900;2022-11-25T17:22:52;11.00;99.90
47604;DHT22;33326;51.116;6.900;2022-11-25T17:27:54;10.90;99.90
47604;DHT22;33326;51.116;6.900;2022-11-25T17:32:59;10.90;99.90
47604;DHT22;33326;51.116;6.900;2022-11-25T17:38:10;10.80;99.90
47604;DHT22;33326;51.116;6.900;2022-11-25T17:43:14;10.70;99.90
47604;DHT22;33326;51.116;6.900;2022-11-25T17:48:17;10.80;99.90
47604;DHT22;33326;51.116;6.900;2022-11-25T17:53:20;10.70;99.90
47604;DHT22;33326;51.116;6.900;2022-11-25T17:58:22;10.70;99.90
47604;DHT22;33326;51.116;6.900;2022-11-25T18:03:24;10.80;99.90
47604;DHT22;33326;51.116;6.900;2022-11-25T18:08:27;10.80;99.90
47604;DHT22;33326;51.116;6.900;2022-11-25T18:13:32;10.80;99.90
47604;DHT22;33326;51.116;6.900;2022-11-25T18:18:36;10.70;99.90
47604;DHT22;33326;51.116;6.900;2022-11-25T18:23:40;10.70;99.90
47604;DHT22;33326;51.116;6.900;2022-11-25T18:28:42;10.60;99.90
47604;DHT22;33326;51.116;6.900;2022-11-25T18:33:44;10.70;99.90
47604;DHT22;33326;51.116;6.900;2022-11-25T18:38:47;10.60;99.90
47604;DHT22;33326;51.116;6.900;2022-11-25T18:43:50;10.60;99.90
47604;DHT22;33326;51.116;6.900;2022-11-25T18:48:52;10.50;99.90
47604;DHT22;33326;51.116;6.900;2022-11-25T18:53:55;10.50;99.90
47604;DHT22;33326;51.116;6.900;2022-11-25T18:58:57;10.60;99.90
47604;DHT22;33326;51.116;6.900;2022-11-25T19:03:59;10.50;99.90
47604;DHT22;33326;51.116;6.900;2022-11-25T19:09:02;10.50;99.90
47604;DHT22;33326;51.116;6.900;2022-11-25T19:14:07;10.40;99.90
47604;DHT22;33326;51.116;6.900;2022-11-25T19:19:13;10.30;99.90
47604;DHT22;33326;51.116;6.900;2022-11-25T19:24:17;10.30;99.90
47604;DHT22;33326;51.116;6.900;2022-11-25T19:29:21;10.20;99.90
47604;DHT22;33326;51.116;6.900;2022-11-25T19:34:28;10.10;99.90
47604;DHT22;33326;51.116;6.900;2022-11-25T19:39:35;10.10;99.90
47604;DHT22;33326;51.116;6.900;2022-11-25T19:44:37;10.20;99.90
47604;DHT22;33326;51.116;6.900;2022-11-25T19:49:39;10.20;99.90
47604;DHT22;33326;51.116;6.900;2022-11-25T19:54:42;10.10;99.90
47604;DHT22;33326;51.116;6.900;2022-11-25T19:59:44;10.10;99.90
47604;DHT22;33326;51.116;6.900;2022-11-25T20:04:48;10.00;99.90
47604;DHT22;33326;51.116;6.900;2022-11-25T20:09:52;9.90;99.90
47604;DHT22;33326;51.116;6.900;2022-11-25T20:14:55;9.90;99.90
47604;DHT22;33326;51.116;6.900;2022-11-25T20:20:00;9.80;99.90
47604;DHT22;33326;51.116;6.900;2022-11-25T20:25:07;9.60;99.90
47604;DHT22;33326;51.116;6.900;2022-11-25T20:30:18;9.50;99.90
47604;DHT22;33326;51.116;6.900;2022-11-25T20:35:21;9.50;99.90
47604;DHT22;33326;51.116;6.900;2022-11-25T20:40:30;9.40;99.90
47604;DHT22;33326;51.116;6.900;2022-11-25T20:45:35;9.40;99.90
47604;DHT22;33326;51.116;6.900;2022-11-25T20:50:37;9.30;99.90
47604;DHT22;33326;51.116;6.900;2022-11-25T22:12:27;8.80;99.90
47604;DHT22;33326;51.116;6.900;2022-11-25T22:17:30;8.70;99.90
47604;DHT22;33326;51.116;6.900;2022-11-25T22:22:32;8.60;99.90
47604;DHT22;33326;51.116;6.900;2022-11-25T22:27:35;8.50;99.90
47604;DHT22;33326;51.116;6.900;2022-11-25T22:32:37;8.50;99.90
47604;DHT22;33326;51.116;6.900;2022-11-25T22:37:39;8.50;99.90
47604;DHT22;33326;51.116;6.900;2022-11-25T22:42:45;8.40;99.90
47604;DHT22;33326;51.116;6.900;2022-11-25T22:47:48;8.40;99.90
47604;DHT22;33326;51.116;6.900;2022-11-25T22:52:50;8.40;99.90
47604;DHT22;33326;51.116;6.900;2022-11-25T22:57:55;8.30;99.90
47604;DHT22;33326;51.116;6.900;2022-11-25T23:02:58;8.20;99.90
47604;DHT22;33326;51.116;6.900;2022-11-25T23:08:01;8.20;99.90
47604;DHT22;33326;51.116;6.900;2022-11-25T23:13:11;8.00;99.90
47604;DHT22;33326;51.116;6.900;2022-11-25T23:18:16;7.90;99.90
47604;DHT22;33326;51.116;6.900;2022-11-25T23:23:22;7.80;99.90
47604;DHT22;33326;51.116;6.900;2022-11-25T23:28:26;7.70;99.90
47604;DHT22;33326;51.116;6.900;2022-11-25T23:33:29;7.70;99.90
47604;DHT22;33326;51.116;6.900;2022-11-25T23:38:31;7.60;99.90
47604;DHT22;33326;51.116;6.900;2022-11-25T23:43:34;7.60;99.90
47604;DHT22;33326;51.116;6.900;2022-11-25T23:48:36;7.40;99.90
47604;DHT22;33326;51.116;6.900;2022-11-25T23:53:40;7.40;99.90
47604;DHT22;33326;51.116;6.900;2022-11-25T23:58:43;7.40;99.90
